sensor_id;sensor_type;location;lat;lon;timestamp;pressure;altitude;pressure_sealevel;temperature;humidity
64340;BME280;63709;53.258;-8.814;2023-02-21T00:02:15;101835.41;;;13.99;100.00
64340;BME280;63709;53.258;-8.814;2023-02-21T00:04:59;101834.22;;;14.03;100.00
64340;BME280;63709;53.258;-8.814;2023-02-21T00:07:43;101823.84;;;13.99;100.00
64340;BME280;63709;53.258;-8.814;2023-02-21T00:10:27;101834.00;;;14.07;100.00
64340;BME280;63709;53.258;-8.814;2023-02-21T00:13:11;101832.63;;;14.01;100.00
64340;BME280;63709;53.258;-8.814;2023-02-21T00:15:55;101830.56;;;14.04;100.00
64340;BME280;63709;53.258;-8.814;2023-02-21T00:18:39;101820.28;;;13.98;100.00
64340;BME280;63709;53.258;-8.814;2023-02-21T00:21:23;101820.03;;;14.01;100.00
64340;BME280;63709;53.258;-8.814;2023-02-21T00:24:07;101819.81;;;14.04;100.00
64340;BME280;63709;53.258;-8.814;2023-02-21T00:26:55;101813.31;;;13.96;100.00
64340;BME280;63709;53.258;-8.814;2023-02-21T00:29:39;101822.00;;;13.99;100.00
64340;BME280;63709;53.258;-8.814;2023-02-21T00:32:24;101817.69;;;13.97;100.00
64340;BME280;63709;53.258;-8.814;2023-02-21T00:35:09;101819.72;;;14.06;100.00
64340;BME280;63709;53.258;-8.814;2023-02-21T00:37:53;101825.94;;;14.07;100.00
64340;BME280;63709;53.258;-8.814;2023-02-21T00:40:37;101817.91;;;14.07;100.00
64340;BME280;63709;53.258;-8.814;2023-02-21T00:43:27;101813.44;;;13.94;100.00
64340;BME280;63709;53.258;-8.814;2023-02-21T00:46:11;101822.06;;;14.11;100.00
64340;BME280;63709;53.258;-8.814;2023-02-21T00:48:55;101816.06;;;14.07;100.00
64340;BME280;63709;53.258;-8.814;2023-02-21T00:51:39;101806.75;;;14.00;100.00
64340;BME280;63709;53.258;-8.814;2023-02-21T00:54:23;101809.88;;;13.94;100.00
64340;BME280;63709;53.258;-8.814;2023-02-21T00:57:07;101818.00;;;14.05;100.00
64340;BME280;63709;53.258;-8.814;2023-02-21T00:59:51;101817.25;;;14.03;100.00
64340;BME280;63709;53.258;-8.814;2023-02-21T01:02:35;101818.13;;;14.03;100.00
64340;BME280;63709;53.258;-8.814;2023-02-21T01:05:19;101821.88;;;14.01;100.00
64340;BME280;63709;53.258;-8.814;2023-02-21T01:08:03;101821.56;;;14.06;100.00
64340;BME280;63709;53.258;-8.814;2023-02-21T01:10:47;101816.41;;;14.02;100.00
64340;BME280;63709;53.258;-8.814;2023-02-21T01:13:31;101811.44;;;14.09;100.00
64340;BME280;63709;53.258;-8.814;2023-02-21T01:16:15;101809.84;;;14.07;100.00
64340;BME280;63709;53.258;-8.814;2023-02-21T01:18:59;101810.28;;;14.00;100.00
64340;BME280;63709;53.258;-8.814;2023-02-21T01:21:43;101802.00;;;14.03;100.00
64340;BME280;63709;53.258;-8.814;2023-02-21T01:24:27;101802.34;;;13.99;100.00
64340;BME280;63709;53.258;-8.814;2023-02-21T01:27:11;101804.63;;;13.92;100.00
64340;BME280;63709;53.258;-8.814;2023-02-21T01:29:55;101792.06;;;13.93;100.00
64340;BME280;63709;53.258;-8.814;2023-02-21T01:32:39;101796.22;;;13.97;100.00
64340;BME280;63709;53.258;-8.814;2023-02-21T01:35:23;101789.38;;;13.93;100.00
64340;BME280;63709;53.258;-8.814;2023-02-21T01:38:07;101784.75;;;13.95;100.00
64340;BME280;63709;53.258;-8.814;2023-02-21T01:40:51;101790.50;;;13.77;100.00
64340;BME280;63709;53.258;-8.814;2023-02-21T01:43:35;101789.00;;;13.73;100.00
64340;BME280;63709;53.258;-8.814;2023-02-21T01:46:19;101782.56;;;13.76;100.00
64340;BME280;63709;53.258;-8.814;2023-02-21T01:49:13;101778.72;;;13.67;100.00
64340;BME280;63709;53.258;-8.814;2023-02-21T01:51:59;101777.31;;;13.74;100.00
64340;BME280;63709;53.258;-8.814;2023-02-21T01:54:45;101772.41;;;13.68;100.00
64340;BME280;63709;53.258;-8.814;2023-02-21T01:57:29;101771.94;;;13.74;100.00
64340;BME280;63709;53.258;-8.814;2023-02-21T02:00:14;101777.31;;;13.74;100.00
64340;BME280;63709;53.258;-8.814;2023-02-21T02:02:59;101769.94;;;13.65;100.00
64340;BME280;63709;53.258;-8.814;2023-02-21T02:05:45;101767.03;;;13.68;100.00
64340;BME280;63709;53.258;-8.814;2023-02-21T02:08:30;101765.94;;;13.71;100.00
64340;BME280;63709;53.258;-8.814;2023-02-21T02:14:28;101757.41;;;13.53;100.00
64340;BME280;63709;53.258;-8.814;2023-02-21T02:19:34;101759.13;;;13.54;100.00
64340;BME280;63709;53.258;-8.814;2023-02-21T02:22:12;101756.44;;;13.54;100.00
64340;BME280;63709;53.258;-8.814;2023-02-21T02:35:07;101737.25;;;13.35;100.00
64340;BME280;63709;53.258;-8.814;2023-02-21T02:40:28;101729.97;;;13.37;100.00
64340;BME280;63709;53.258;-8.814;2023-02-21T02:47:50;101722.81;;;13.24;100.00
64340;BME280;63709;53.258;-8.814;2023-02-21T02:50:18;101728.06;;;13.26;100.00
64340;BME280;63709;53.258;-8.814;2023-02-21T02:52:54;101722.16;;;13.34;100.00
64340;BME280;63709;53.258;-8.814;2023-02-21T02:55:22;101714.56;;;13.27;100.00
64340;BME280;63709;53.258;-8.814;2023-02-21T02:57:48;101716.28;;;13.28;100.00
64340;BME280;63709;53.258;-8.814;2023-02-21T03:00:15;101709.31;;;13.26;100.00
64340;BME280;63709;53.258;-8.814;2023-02-21T03:05:10;101701.38;;;13.24;100.00
64340;BME280;63709;53.258;-8.814;2023-02-21T03:10:24;101704.69;;;13.28;100.00
64340;BME280;63709;53.258;-8.814;2023-02-21T03:13:03;101700.69;;;13.34;100.00
64340;BME280;63709;53.258;-8.814;2023-02-21T03:18:12;101694.06;;;13.39;100.00
64340;BME280;63709;53.258;-8.814;2023-02-21T03:20:40;101691.25;;;13.41;100.00
64340;BME280;63709;53.258;-8.814;2023-02-21T03:23:07;101688.97;;;13.47;100.00
64340;BME280;63709;53.258;-8.814;2023-02-21T03:25:34;101682.00;;;13.45;100.00
64340;BME280;63709;53.258;-8.814;2023-02-21T03:28:01;101677.81;;;13.53;100.00
64340;BME280;63709;53.258;-8.814;2023-02-21T03:30:27;101674.88;;;13.56;100.00
64340;BME280;63709;53.258;-8.814;2023-02-21T03:32:53;101671.91;;;13.48;100.00
64340;BME280;63709;53.258;-8.814;2023-02-21T03:35:19;101670.72;;;13.52;100.00
64340;BME280;63709;53.258;-8.814;2023-02-21T03:37:46;101674.16;;;13.54;100.00
64340;BME280;63709;53.258;-8.814;2023-02-21T03:40:16;101665.88;;;13.58;100.00
64340;BME280;63709;53.258;-8.814;2023-02-21T03:42:42;101666.25;;;13.64;100.00
64340;BME280;63709;53.258;-8.814;2023-02-21T03:45:08;101668.44;;;13.59;100.00
64340;BME280;63709;53.258;-8.814;2023-02-21T03:47:34;101663.44;;;13.42;100.00
64340;BME280;63709;53.258;-8.814;2023-02-21T03:49:59;101656.94;;;13.57;100.00
64340;BME280;63709;53.258;-8.814;2023-02-21T03:52:25;101659.97;;;13.52;100.00
64340;BME280;63709;53.258;-8.814;2023-02-21T03:54:51;101653.66;;;13.53;100.00
64340;BME280;63709;53.258;-8.814;2023-02-21T03:57:16;101654.31;;;13.44;100.00
64340;BME280;63709;53.258;-8.814;2023-02-21T03:59:41;101644.22;;;13.48;100.00
64340;BME280;63709;53.258;-8.814;2023-02-21T04:02:07;101637.78;;;13.50;100.00
64340;BME280;63709;53.258;-8.814;2023-02-21T04:04:32;101644.88;;;13.51;100.00
64340;BME280;63709;53.258;-8.814;2023-02-21T04:06:58;101642.94;;;13.53;100.00
64340;BME280;63709;53.258;-8.814;2023-02-21T04:09:23;101645.63;;;13.53;100.00
64340;BME280;63709;53.258;-8.814;2023-02-21T04:11:50;101635.63;;;13.55;100.00
64340;BME280;63709;53.258;-8.814;2023-02-21T04:14:15;101634.00;;;13.53;100.00
64340;BME280;63709;53.258;-8.814;2023-02-21T04:16:41;101634.34;;;13.48;100.00
64340;BME280;63709;53.258;-8.814;2023-02-21T04:19:06;101630.31;;;13.43;100.00
64340;BME280;63709;53.258;-8.814;2023-02-21T04:21:31;101631.16;;;13.43;100.00
64340;BME280;63709;53.258;-8.814;2023-02-21T04:23:57;101622.50;;;13.40;100.00
64340;BME280;63709;53.258;-8.814;2023-02-21T04:26:22;101620.03;;;13.37;100.00
64340;BME280;63709;53.258;-8.814;2023-02-21T04:28:49;101615.13;;;13.30;100.00
64340;BME280;63709;53.258;-8.814;2023-02-21T04:31:15;101613.28;;;13.31;100.00
64340;BME280;63709;53.258;-8.814;2023-02-21T04:33:40;101612.44;;;13.30;100.00
64340;BME280;63709;53.258;-8.814;2023-02-21T04:36:06;101606.56;;;13.25;100.00
64340;BME280;63709;53.258;-8.814;2023-02-21T04:38:31;101603.44;;;13.31;100.00
64340;BME280;63709;53.258;-8.814;2023-02-21T04:40:56;101599.50;;;13.24;100.00
64340;BME280;63709;53.258;-8.814;2023-02-21T04:43:21;101605.50;;;13.28;100.00
64340;BME280;63709;53.258;-8.814;2023-02-21T04:45:47;101598.31;;;13.28;100.00
64340;BME280;63709;53.258;-8.814;2023-02-21T04:48:12;101596.72;;;13.13;100.00
64340;BME280;63709;53.258;-8.814;2023-02-21T04:50:37;101588.84;;;13.23;100.00
64340;BME280;63709;53.258;-8.814;2023-02-21T04:53:03;101588.22;;;13.19;100.00
64340;BME280;63709;53.258;-8.814;2023-02-21T04:55:28;101592.00;;;13.17;100.00
64340;BME280;63709;53.258;-8.814;2023-02-21T04:57:53;101584.66;;;13.19;100.00
64340;BME280;63709;53.258;-8.814;2023-02-21T05:00:18;101580.16;;;13.19;100.00
64340;BME280;63709;53.258;-8.814;2023-02-21T05:02:44;101589.31;;;13.17;100.00
64340;BME280;63709;53.258;-8.814;2023-02-21T05:05:09;101580.78;;;13.23;100.00
64340;BME280;63709;53.258;-8.814;2023-02-21T05:07:35;101584.34;;;13.23;100.00
64340;BME280;63709;53.258;-8.814;2023-02-21T05:10:02;101586.72;;;13.28;100.00
64340;BME280;63709;53.258;-8.814;2023-02-21T05:12:29;101583.91;;;13.29;100.00
64340;BME280;63709;53.258;-8.814;2023-02-21T05:14:55;101571.91;;;13.22;100.00
64340;BME280;63709;53.258;-8.814;2023-02-21T05:17:20;101572.47;;;13.27;100.00
64340;BME280;63709;53.258;-8.814;2023-02-21T05:19:46;101570.72;;;13.26;100.00
64340;BME280;63709;53.258;-8.814;2023-02-21T05:22:11;101568.81;;;13.28;100.00
64340;BME280;63709;53.258;-8.814;2023-02-21T05:24:39;101567.69;;;13.31;100.00
64340;BME280;63709;53.258;-8.814;2023-02-21T05:27:06;101570.50;;;13.29;100.00
64340;BME280;63709;53.258;-8.814;2023-02-21T05:29:35;101566.63;;;13.34;100.00
64340;BME280;63709;53.258;-8.814;2023-02-21T05:32:00;101560.63;;;13.30;100.00
64340;BME280;63709;53.258;-8.814;2023-02-21T05:34:26;101557.66;;;13.22;100.00
64340;BME280;63709;53.258;-8.814;2023-02-21T05:36:51;101558.59;;;13.34;100.00
64340;BME280;63709;53.258;-8.814;2023-02-21T05:39:16;101555.50;;;13.27;100.00
64340;BME280;63709;53.258;-8.814;2023-02-21T05:41:47;101558.50;;;13.35;100.00
64340;BME280;63709;53.258;-8.814;2023-02-21T05:44:12;101556.13;;;13.30;100.00
64340;BME280;63709;53.258;-8.814;2023-02-21T05:46:38;101553.13;;;13.35;100.00
64340;BME280;63709;53.258;-8.814;2023-02-21T05:49:03;101553.97;;;13.36;100.00
64340;BME280;63709;53.258;-8.814;2023-02-21T05:51:35;101553.41;;;13.43;100.00
64340;BME280;63709;53.258;-8.814;2023-02-21T05:54:01;101552.16;;;13.36;100.00
64340;BME280;63709;53.258;-8.814;2023-02-21T05:56:27;101550.31;;;13.37;100.00
64340;BME280;63709;53.258;-8.814;2023-02-21T05:58:52;101535.53;;;13.31;100.00
64340;BME280;63709;53.258;-8.814;2023-02-21T06:01:17;101538.34;;;13.29;100.00
64340;BME280;63709;53.258;-8.814;2023-02-21T06:03:42;101529.72;;;13.37;100.00
64340;BME280;63709;53.258;-8.814;2023-02-21T06:06:08;101541.50;;;13.35;100.00
64340;BME280;63709;53.258;-8.814;2023-02-21T06:08:41;101544.31;;;13.33;100.00
64340;BME280;63709;53.258;-8.814;2023-02-21T06:11:06;101535.78;;;13.28;100.00
64340;BME280;63709;53.258;-8.814;2023-02-21T06:13:31;101536.00;;;13.25;100.00
64340;BME280;63709;53.258;-8.814;2023-02-21T06:15:57;101532.25;;;13.27;100.00
64340;BME280;63709;53.258;-8.814;2023-02-21T06:18:22;101529.13;;;13.21;100.00
64340;BME280;63709;53.258;-8.814;2023-02-21T06:20:47;101524.44;;;13.12;100.00
64340;BME280;63709;53.258;-8.814;2023-02-21T06:23:13;101518.44;;;13.08;100.00
64340;BME280;63709;53.258;-8.814;2023-02-21T06:25:39;101515.69;;;13.10;100.00
64340;BME280;63709;53.258;-8.814;2023-02-21T06:28:04;101506.66;;;13.11;100.00
64340;BME280;63709;53.258;-8.814;2023-02-21T06:30:29;101510.31;;;13.10;100.00
64340;BME280;63709;53.258;-8.814;2023-02-21T06:32:55;101513.84;;;13.10;100.00
64340;BME280;63709;53.258;-8.814;2023-02-21T06:35:20;101508.59;;;13.08;100.00
64340;BME280;63709;53.258;-8.814;2023-02-21T06:37:45;101504.72;;;13.13;100.00
64340;BME280;63709;53.258;-8.814;2023-02-21T06:40:11;101498.25;;;13.15;100.00
64340;BME280;63709;53.258;-8.814;2023-02-21T06:42:36;101496.97;;;13.21;100.00
64340;BME280;63709;53.258;-8.814;2023-02-21T06:45:01;101495.88;;;13.23;100.00
64340;BME280;63709;53.258;-8.814;2023-02-21T06:47:27;101483.00;;;13.28;100.00
64340;BME280;63709;53.258;-8.814;2023-02-21T06:49:53;101493.38;;;13.33;100.00
64340;BME280;63709;53.258;-8.814;2023-02-21T06:52:18;101489.34;;;13.27;100.00
64340;BME280;63709;53.258;-8.814;2023-02-21T06:54:43;101488.25;;;13.30;100.00
64340;BME280;63709;53.258;-8.814;2023-02-21T06:57:10;101484.72;;;13.29;100.00
64340;BME280;63709;53.258;-8.814;2023-02-21T06:59:35;101480.34;;;13.16;100.00
64340;BME280;63709;53.258;-8.814;2023-02-21T07:02:00;101485.00;;;13.14;100.00
64340;BME280;63709;53.258;-8.814;2023-02-21T07:04:26;101483.97;;;13.03;100.00
64340;BME280;63709;53.258;-8.814;2023-02-21T07:06:52;101483.22;;;13.01;100.00
64340;BME280;63709;53.258;-8.814;2023-02-21T07:09:17;101477.13;;;12.99;100.00
64340;BME280;63709;53.258;-8.814;2023-02-21T07:11:42;101479.94;;;12.98;100.00
64340;BME280;63709;53.258;-8.814;2023-02-21T07:14:08;101480.03;;;12.96;100.00
64340;BME280;63709;53.258;-8.814;2023-02-21T07:16:35;101468.81;;;12.91;100.00
64340;BME280;63709;53.258;-8.814;2023-02-21T07:19:00;101462.25;;;12.95;100.00
64340;BME280;63709;53.258;-8.814;2023-02-21T07:21:26;101462.34;;;12.94;100.00
64340;BME280;63709;53.258;-8.814;2023-02-21T07:23:51;101466.34;;;12.88;100.00
64340;BME280;63709;53.258;-8.814;2023-02-21T07:26:17;101459.66;;;12.94;100.00
64340;BME280;63709;53.258;-8.814;2023-02-21T07:28:43;101468.69;;;12.93;100.00
64340;BME280;63709;53.258;-8.814;2023-02-21T07:31:10;101466.06;;;12.80;100.00
64340;BME280;63709;53.258;-8.814;2023-02-21T07:33:37;101469.47;;;12.82;100.00
64340;BME280;63709;53.258;-8.814;2023-02-21T07:36:02;101465.22;;;12.79;100.00
64340;BME280;63709;53.258;-8.814;2023-02-21T07:38:28;101467.44;;;12.86;100.00
64340;BME280;63709;53.258;-8.814;2023-02-21T07:40:59;101463.47;;;12.78;100.00
64340;BME280;63709;53.258;-8.814;2023-02-21T07:43:26;101463.72;;;12.75;100.00
64340;BME280;63709;53.258;-8.814;2023-02-21T07:45:52;101461.78;;;12.77;100.00
64340;BME280;63709;53.258;-8.814;2023-02-21T07:48:17;101465.28;;;12.91;100.00
64340;BME280;63709;53.258;-8.814;2023-02-21T07:50:42;101466.91;;;12.80;100.00
64340;BME280;63709;53.258;-8.814;2023-02-21T07:53:08;101459.97;;;12.78;100.00
64340;BME280;63709;53.258;-8.814;2023-02-21T07:55:34;101455.34;;;12.80;100.00
64340;BME280;63709;53.258;-8.814;2023-02-21T07:57:59;101462.28;;;12.82;100.00
64340;BME280;63709;53.258;-8.814;2023-02-21T08:00:24;101458.97;;;12.79;100.00
64340;BME280;63709;53.258;-8.814;2023-02-21T08:02:50;101461.84;;;12.89;100.00
64340;BME280;63709;53.258;-8.814;2023-02-21T08:05:16;101455.13;;;12.83;100.00
64340;BME280;63709;53.258;-8.814;2023-02-21T08:07:42;101460.88;;;12.90;100.00
64340;BME280;63709;53.258;-8.814;2023-02-21T08:10:07;101459.38;;;12.86;100.00
64340;BME280;63709;53.258;-8.814;2023-02-21T08:12:33;101460.88;;;12.90;100.00
64340;BME280;63709;53.258;-8.814;2023-02-21T08:14:58;101449.28;;;12.89;100.00
64340;BME280;63709;53.258;-8.814;2023-02-21T08:17:23;101452.50;;;12.94;100.00
64340;BME280;63709;53.258;-8.814;2023-02-21T08:19:49;101454.09;;;12.97;100.00
64340;BME280;63709;53.258;-8.814;2023-02-21T08:22:15;101457.47;;;12.88;100.00
64340;BME280;63709;53.258;-8.814;2023-02-21T08:24:40;101449.19;;;12.91;100.00
64340;BME280;63709;53.258;-8.814;2023-02-21T08:27:06;101460.88;;;12.90;100.00
64340;BME280;63709;53.258;-8.814;2023-02-21T08:29:31;101441.88;;;12.93;100.00
64340;BME280;63709;53.258;-8.814;2023-02-21T08:31:58;101439.44;;;12.90;100.00
64340;BME280;63709;53.258;-8.814;2023-02-21T08:34:23;101444.34;;;12.96;100.00
64340;BME280;63709;53.258;-8.814;2023-02-21T08:36:49;101443.00;;;13.01;100.00
64340;BME280;63709;53.258;-8.814;2023-02-21T08:39:14;101438.75;;;12.99;100.00
64340;BME280;63709;53.258;-8.814;2023-02-21T08:41:40;101429.88;;;12.98;100.00
64340;BME280;63709;53.258;-8.814;2023-02-21T08:44:07;101435.84;;;13.02;100.00
64340;BME280;63709;53.258;-8.814;2023-02-21T08:46:33;101431.47;;;13.12;100.00
64340;BME280;63709;53.258;-8.814;2023-02-21T08:48:59;101427.09;;;13.11;100.00
64340;BME280;63709;53.258;-8.814;2023-02-21T08:51:25;101429.28;;;13.06;100.00
64340;BME280;63709;53.258;-8.814;2023-02-21T08:53:50;101427.38;;;13.19;100.00
64340;BME280;63709;53.258;-8.814;2023-02-21T08:56:19;101426.19;;;13.23;100.00
64340;BME280;63709;53.258;-8.814;2023-02-21T08:58:44;101427.50;;;13.18;100.00
64340;BME280;63709;53.258;-8.814;2023-02-21T09:01:10;101422.50;;;13.13;100.00
64340;BME280;63709;53.258;-8.814;2023-02-21T09:03:35;101428.34;;;13.18;100.00
64340;BME280;63709;53.258;-8.814;2023-02-21T09:06:01;101428.56;;;13.15;100.00
64340;BME280;63709;53.258;-8.814;2023-02-21T09:08:27;101429.81;;;13.22;100.00
64340;BME280;63709;53.258;-8.814;2023-02-21T09:10:54;101429.63;;;13.25;100.00
64340;BME280;63709;53.258;-8.814;2023-02-21T09:13:24;101421.56;;;13.25;100.00
64340;BME280;63709;53.258;-8.814;2023-02-21T09:15:49;101425.44;;;13.21;100.00
64340;BME280;63709;53.258;-8.814;2023-02-21T09:18:15;101421.22;;;13.30;100.00
64340;BME280;63709;53.258;-8.814;2023-02-21T09:20:40;101424.88;;;13.29;100.00
64340;BME280;63709;53.258;-8.814;2023-02-21T09:23:07;101425.25;;;13.24;100.00
64340;BME280;63709;53.258;-8.814;2023-02-21T09:25:36;101424.06;;;13.40;100.00
64340;BME280;63709;53.258;-8.814;2023-02-21T09:28:02;101413.81;;;13.45;100.00
64340;BME280;63709;53.258;-8.814;2023-02-21T09:30:27;101421.88;;;13.45;100.00
64340;BME280;63709;53.258;-8.814;2023-02-21T09:32:53;101427.75;;;13.50;100.00
64340;BME280;63709;53.258;-8.814;2023-02-21T09:35:19;101418.81;;;13.49;100.00
64340;BME280;63709;53.258;-8.814;2023-02-21T09:37:45;101421.50;;;13.49;100.00
64340;BME280;63709;53.258;-8.814;2023-02-21T09:42:45;101415.44;;;13.59;100.00
64340;BME280;63709;53.258;-8.814;2023-02-21T09:45:14;101415.81;;;13.65;100.00
64340;BME280;63709;53.258;-8.814;2023-02-21T09:47:40;101413.13;;;13.65;100.00
64340;BME280;63709;53.258;-8.814;2023-02-21T09:50:07;101415.81;;;13.65;100.00
64340;BME280;63709;53.258;-8.814;2023-02-21T09:52:34;101414.59;;;13.69;100.00
64340;BME280;63709;53.258;-8.814;2023-02-21T09:55:02;101411.78;;;13.71;100.00
64340;BME280;63709;53.258;-8.814;2023-02-21T09:57:29;101415.22;;;13.84;100.00
64340;BME280;63709;53.258;-8.814;2023-02-21T09:59:54;101405.31;;;13.85;100.00
64340;BME280;63709;53.258;-8.814;2023-02-21T10:05:45;101415.31;;;13.94;100.00
64340;BME280;63709;53.258;-8.814;2023-02-21T10:08:25;101407.41;;;13.92;100.00
64340;BME280;63709;53.258;-8.814;2023-02-21T10:10:58;101400.09;;;13.94;100.00
64340;BME280;63709;53.258;-8.814;2023-02-21T10:13:34;101399.72;;;13.88;100.00
64340;BME280;63709;53.258;-8.814;2023-02-21T10:16:04;101404.72;;;13.81;100.00
64340;BME280;63709;53.258;-8.814;2023-02-21T10:21:11;101388.47;;;13.94;100.00
64340;BME280;63709;53.258;-8.814;2023-02-21T10:23:37;101388.25;;;13.86;100.00
64340;BME280;63709;53.258;-8.814;2023-02-21T10:26:10;101383.47;;;14.00;100.00
64340;BME280;63709;53.258;-8.814;2023-02-21T10:28:37;101379.56;;;14.04;100.00
64340;BME280;63709;53.258;-8.814;2023-02-21T10:31:37;101380.94;;;13.99;100.00
64340;BME280;63709;53.258;-8.814;2023-02-21T10:33:54;101384.81;;;14.06;100.00
64340;BME280;63709;53.258;-8.814;2023-02-21T10:36:21;101376.00;;;14.15;100.00
64340;BME280;63709;53.258;-8.814;2023-02-21T10:38:55;101376.75;;;14.17;100.00
64340;BME280;63709;53.258;-8.814;2023-02-21T10:41:22;101376.50;;;14.32;100.00
64340;BME280;63709;53.258;-8.814;2023-02-21T10:43:49;101385.41;;;14.32;100.00
64340;BME280;63709;53.258;-8.814;2023-02-21T10:48:49;101379.88;;;14.34;100.00
64340;BME280;63709;53.258;-8.814;2023-02-21T10:51:17;101379.31;;;14.19;100.00
64340;BME280;63709;53.258;-8.814;2023-02-21T10:53:52;101382.22;;;14.27;100.00
64340;BME280;63709;53.258;-8.814;2023-02-21T10:58:44;101379.53;;;14.27;100.00
64340;BME280;63709;53.258;-8.814;2023-02-21T11:01:32;101371.72;;;14.35;100.00
64340;BME280;63709;53.258;-8.814;2023-02-21T11:03:58;101371.38;;;14.28;100.00
64340;BME280;63709;53.258;-8.814;2023-02-21T11:08:53;101357.75;;;14.41;100.00
64340;BME280;63709;53.258;-8.814;2023-02-21T11:14:19;101348.38;;;14.47;100.00
64340;BME280;63709;53.258;-8.814;2023-02-21T11:16:49;101338.25;;;14.50;100.00
64340;BME280;63709;53.258;-8.814;2023-02-21T11:19:28;101346.28;;;14.62;100.00
64340;BME280;63709;53.258;-8.814;2023-02-21T11:21:56;101333.53;;;14.64;100.00
64340;BME280;63709;53.258;-8.814;2023-02-21T11:29:41;101330.16;;;14.62;100.00
64340;BME280;63709;53.258;-8.814;2023-02-21T11:32:10;101337.59;;;14.58;100.00
64340;BME280;63709;53.258;-8.814;2023-02-21T11:37:12;101323.03;;;14.61;100.00
64340;BME280;63709;53.258;-8.814;2023-02-21T11:39:38;101330.25;;;14.60;100.00
64340;BME280;63709;53.258;-8.814;2023-02-21T11:42:28;101326.88;;;14.47;100.00
64340;BME280;63709;53.258;-8.814;2023-02-21T11:45:13;101317.34;;;14.54;100.00
64340;BME280;63709;53.258;-8.814;2023-02-21T11:47:51;101324.69;;;14.52;100.00
64340;BME280;63709;53.258;-8.814;2023-02-21T11:52:58;101320.34;;;14.61;100.00
64340;BME280;63709;53.258;-8.814;2023-02-21T11:55:23;101320.34;;;14.61;100.00
64340;BME280;63709;53.258;-8.814;2023-02-21T11:57:53;101321.28;;;14.71;100.00
64340;BME280;63709;53.258;-8.814;2023-02-21T12:00:30;101311.03;;;14.76;100.00
64340;BME280;63709;53.258;-8.814;2023-02-21T12:08:20;101296.09;;;14.83;100.00
64340;BME280;63709;53.258;-8.814;2023-02-21T12:13:30;101290.50;;;14.96;100.00
64340;BME280;63709;53.258;-8.814;2023-02-21T12:21:34;101278.91;;;14.95;100.00
64340;BME280;63709;53.258;-8.814;2023-02-21T12:26:52;101271.53;;;14.97;100.00
64340;BME280;63709;53.258;-8.814;2023-02-21T12:29:22;101263.94;;;15.03;100.00
64340;BME280;63709;53.258;-8.814;2023-02-21T12:32:13;101261.84;;;15.06;100.00
64340;BME280;63709;53.258;-8.814;2023-02-21T12:46:55;101239.25;;;15.18;100.00
64340;BME280;63709;53.258;-8.814;2023-02-21T12:51:40;101232.41;;;15.45;100.00
64340;BME280;63709;53.258;-8.814;2023-02-21T12:54:09;101226.38;;;15.62;100.00
64340;BME280;63709;53.258;-8.814;2023-02-21T12:59:07;101217.50;;;15.71;100.00
64340;BME280;63709;53.258;-8.814;2023-02-21T13:01:40;101217.06;;;15.66;100.00
64340;BME280;63709;53.258;-8.814;2023-02-21T13:06:47;101215.84;;;15.80;100.00
64340;BME280;63709;53.258;-8.814;2023-02-21T13:09:58;101205.19;;;15.79;100.00
64340;BME280;63709;53.258;-8.814;2023-02-21T13:14:35;101197.56;;;15.93;100.00
64340;BME280;63709;53.258;-8.814;2023-02-21T13:17:01;101187.06;;;15.90;100.00
64340;BME280;63709;53.258;-8.814;2023-02-21T13:19:40;101185.38;;;15.99;100.00
64340;BME280;63709;53.258;-8.814;2023-02-21T13:25:32;101163.56;;;16.02;100.00
64340;BME280;63709;53.258;-8.814;2023-02-21T13:28:07;101169.50;;;16.15;100.00
64340;BME280;63709;53.258;-8.814;2023-02-21T13:30:41;101163.56;;;16.21;100.00
64340;BME280;63709;53.258;-8.814;2023-02-21T13:35:58;101160.94;;;16.49;100.00
64340;BME280;63709;53.258;-8.814;2023-02-21T13:38:26;101158.53;;;16.56;100.00
64340;BME280;63709;53.258;-8.814;2023-02-21T13:41:05;101153.97;;;16.66;100.00
64340;BME280;63709;53.258;-8.814;2023-02-21T13:43:37;101157.53;;;16.76;100.00
64340;BME280;63709;53.258;-8.814;2023-02-21T13:46:22;101158.19;;;16.78;100.00
64340;BME280;63709;53.258;-8.814;2023-02-21T13:51:51;101140.34;;;16.77;100.00
64340;BME280;63709;53.258;-8.814;2023-02-21T13:54:24;101138.19;;;16.81;100.00
64340;BME280;63709;53.258;-8.814;2023-02-21T13:56:49;101138.78;;;16.65;100.00
64340;BME280;63709;53.258;-8.814;2023-02-21T13:59:36;101140.31;;;16.67;100.00
64340;BME280;63709;53.258;-8.814;2023-02-21T14:02:21;101123.66;;;16.54;100.00
64340;BME280;63709;53.258;-8.814;2023-02-21T14:10:25;101126.53;;;16.33;100.00
64340;BME280;63709;53.258;-8.814;2023-02-21T14:12:58;101121.56;;;16.29;100.00
64340;BME280;63709;53.258;-8.814;2023-02-21T14:15:34;101124.13;;;16.30;100.00
64340;BME280;63709;53.258;-8.814;2023-02-21T14:18:00;101110.81;;;16.29;100.00
64340;BME280;63709;53.258;-8.814;2023-02-21T14:20:25;101110.19;;;16.44;100.00
64340;BME280;63709;53.258;-8.814;2023-02-21T14:22:53;101096.38;;;16.57;100.00
64340;BME280;63709;53.258;-8.814;2023-02-21T14:25:22;101098.34;;;16.75;100.00
64340;BME280;63709;53.258;-8.814;2023-02-21T14:27:48;101088.66;;;16.72;100.00
64340;BME280;63709;53.258;-8.814;2023-02-21T14:30:27;101093.03;;;16.83;100.00
64340;BME280;63709;53.258;-8.814;2023-02-21T14:32:53;101089.38;;;16.84;100.00
64340;BME280;63709;53.258;-8.814;2023-02-21T14:40:28;101082.97;;;17.12;100.00
64340;BME280;63709;53.258;-8.814;2023-02-21T15:04:25;101051.63;;;17.29;100.00
64340;BME280;63709;53.258;-8.814;2023-02-21T15:07:00;101053.19;;;17.32;100.00
64340;BME280;63709;53.258;-8.814;2023-02-21T15:09:31;101049.16;;;17.36;100.00